sensor_id;sensor_type;location;lat;lon;timestamp;P1;durP1;ratioP1;P2;durP2;ratioP2
34035;SDS011;63481;52.588;22.472;2022-12-29T00:00:20;17.77;;;10.05;;
34035;SDS011;63481;52.588;22.472;2022-12-29T00:01:12;17.75;;;8.90;;
34035;SDS011;63481;52.588;22.472;2022-12-29T00:02:02;19.65;;;9.23;;
34035;SDS011;63481;52.588;22.472;2022-12-29T00:02:52;17.77;;;8.75;;
34035;SDS011;63481;52.588;22.472;2022-12-29T00:03:45;19.15;;;8.85;;
34035;SDS011;63481;52.588;22.472;2022-12-29T00:04:37;16.45;;;8.55;;
34035;SDS011;63481;52.588;22.472;2022-12-29T00:06:18;18.60;;;8.35;;
34035;SDS011;63481;52.588;22.472;2022-12-29T00:07:10;20.50;;;8.98;;
34035;SDS011;63481;52.588;22.472;2022-12-29T00:08:53;15.93;;;8.63;;
34035;SDS011;63481;52.588;22.472;2022-12-29T00:10:33;19.87;;;8.68;;
34035;SDS011;63481;52.588;22.472;2022-12-29T00:11:24;17.87;;;9.83;;
34035;SDS011;63481;52.588;22.472;2022-12-29T00:12:15;17.42;;;9.23;;
34035;SDS011;63481;52.588;22.472;2022-12-29T00:13:06;19.92;;;9.40;;
34035;SDS011;63481;52.588;22.472;2022-12-29T00:14:15;19.82;;;9.18;;
34035;SDS011;63481;52.588;22.472;2022-12-29T00:15:24;18.35;;;9.10;;
34035;SDS011;63481;52.588;22.472;2022-12-29T00:16:27;19.90;;;9.90;;
34035;SDS011;63481;52.588;22.472;2022-12-29T00:17:18;17.62;;;9.48;;
34035;SDS011;63481;52.588;22.472;2022-12-29T00:18:09;17.48;;;8.50;;
34035;SDS011;63481;52.588;22.472;2022-12-29T00:19:49;22.45;;;9.38;;
34035;SDS011;63481;52.588;22.472;2022-12-29T00:21:01;19.77;;;8.23;;
34035;SDS011;63481;52.588;22.472;2022-12-29T00:22:10;16.48;;;8.30;;
34035;SDS011;63481;52.588;22.472;2022-12-29T00:23:21;18.23;;;9.28;;
34035;SDS011;63481;52.588;22.472;2022-12-29T00:24:30;17.48;;;9.08;;
34035;SDS011;63481;52.588;22.472;2022-12-29T00:25:27;18.67;;;10.15;;
34035;SDS011;63481;52.588;22.472;2022-12-29T00:26:35;16.27;;;8.60;;
34035;SDS011;63481;52.588;22.472;2022-12-29T00:27:44;19.45;;;8.88;;
34035;SDS011;63481;52.588;22.472;2022-12-29T00:28:52;17.98;;;8.50;;
34035;SDS011;63481;52.588;22.472;2022-12-29T00:30:00;17.87;;;8.83;;
34035;SDS011;63481;52.588;22.472;2022-12-29T00:31:11;19.67;;;8.53;;
34035;SDS011;63481;52.588;22.472;2022-12-29T00:32:19;17.65;;;8.13;;
34035;SDS011;63481;52.588;22.472;2022-12-29T00:33:30;15.80;;;8.68;;
34035;SDS011;63481;52.588;22.472;2022-12-29T00:34:40;17.35;;;8.70;;
34035;SDS011;63481;52.588;22.472;2022-12-29T00:35:52;18.37;;;9.00;;
34035;SDS011;63481;52.588;22.472;2022-12-29T00:36:48;17.17;;;8.48;;
34035;SDS011;63481;52.588;22.472;2022-12-29T00:37:41;18.07;;;8.83;;
34035;SDS011;63481;52.588;22.472;2022-12-29T00:38:55;19.73;;;9.10;;
34035;SDS011;63481;52.588;22.472;2022-12-29T00:40:01;16.87;;;7.90;;
34035;SDS011;63481;52.588;22.472;2022-12-29T00:41:09;21.45;;;10.00;;
34035;SDS011;63481;52.588;22.472;2022-12-29T00:42:18;18.25;;;8.83;;
34035;SDS011;63481;52.588;22.472;2022-12-29T00:43:26;18.12;;;8.95;;
34035;SDS011;63481;52.588;22.472;2022-12-29T00:44:35;17.02;;;9.10;;
34035;SDS011;63481;52.588;22.472;2022-12-29T00:45:25;18.70;;;8.53;;
34035;SDS011;63481;52.588;22.472;2022-12-29T00:46:18;22.45;;;9.43;;
34035;SDS011;63481;52.588;22.472;2022-12-29T00:47:08;16.35;;;8.55;;
34035;SDS011;63481;52.588;22.472;2022-12-29T00:47:59;18.20;;;9.20;;
34035;SDS011;63481;52.588;22.472;2022-12-29T00:48:49;17.55;;;9.25;;
34035;SDS011;63481;52.588;22.472;2022-12-29T00:49:41;16.95;;;8.95;;
34035;SDS011;63481;52.588;22.472;2022-12-29T00:50:31;14.60;;;8.60;;
34035;SDS011;63481;52.588;22.472;2022-12-29T00:51:21;17.45;;;9.28;;
34035;SDS011;63481;52.588;22.472;2022-12-29T00:52:14;19.00;;;9.45;;
34035;SDS011;63481;52.588;22.472;2022-12-29T00:53:04;19.15;;;9.48;;
34035;SDS011;63481;52.588;22.472;2022-12-29T00:53:54;19.77;;;9.93;;
34035;SDS011;63481;52.588;22.472;2022-12-29T00:54:45;20.23;;;9.43;;
34035;SDS011;63481;52.588;22.472;2022-12-29T00:55:38;18.50;;;10.05;;
34035;SDS011;63481;52.588;22.472;2022-12-29T00:56:31;19.55;;;10.53;;
34035;SDS011;63481;52.588;22.472;2022-12-29T00:57:22;19.02;;;10.00;;
34035;SDS011;63481;52.588;22.472;2022-12-29T00:58:12;19.17;;;10.80;;
34035;SDS011;63481;52.588;22.472;2022-12-29T00:59:06;19.35;;;9.78;;
34035;SDS011;63481;52.588;22.472;2022-12-29T00:59:58;22.02;;;10.58;;
34035;SDS011;63481;52.588;22.472;2022-12-29T01:01:38;19.92;;;10.05;;
34035;SDS011;63481;52.588;22.472;2022-12-29T01:02:29;20.27;;;9.83;;
34035;SDS011;63481;52.588;22.472;2022-12-29T01:03:19;20.65;;;10.28;;
34035;SDS011;63481;52.588;22.472;2022-12-29T01:04:13;18.75;;;9.70;;
34035;SDS011;63481;52.588;22.472;2022-12-29T01:05:53;17.77;;;9.40;;
34035;SDS011;63481;52.588;22.472;2022-12-29T01:06:44;21.27;;;9.30;;
34035;SDS011;63481;52.588;22.472;2022-12-29T01:07:34;19.70;;;10.20;;
34035;SDS011;63481;52.588;22.472;2022-12-29T01:08:27;18.60;;;10.35;;
34035;SDS011;63481;52.588;22.472;2022-12-29T01:09:17;19.20;;;10.25;;
34035;SDS011;63481;52.588;22.472;2022-12-29T01:10:26;19.70;;;9.88;;
34035;SDS011;63481;52.588;22.472;2022-12-29T01:11:16;19.10;;;10.65;;
34035;SDS011;63481;52.588;22.472;2022-12-29T01:12:07;18.30;;;9.68;;
34035;SDS011;63481;52.588;22.472;2022-12-29T01:12:58;17.75;;;9.55;;
34035;SDS011;63481;52.588;22.472;2022-12-29T01:13:48;21.45;;;10.45;;
34035;SDS011;63481;52.588;22.472;2022-12-29T01:14:38;18.65;;;9.33;;
34035;SDS011;63481;52.588;22.472;2022-12-29T01:15:28;19.17;;;10.00;;
34035;SDS011;63481;52.588;22.472;2022-12-29T01:16:18;19.42;;;9.78;;
34035;SDS011;63481;52.588;22.472;2022-12-29T01:17:08;16.97;;;9.30;;
34035;SDS011;63481;52.588;22.472;2022-12-29T01:17:59;21.33;;;9.83;;
34035;SDS011;63481;52.588;22.472;2022-12-29T01:18:49;16.75;;;9.08;;
34035;SDS011;63481;52.588;22.472;2022-12-29T01:19:39;18.57;;;10.10;;
34035;SDS011;63481;52.588;22.472;2022-12-29T01:20:29;21.02;;;9.75;;
34035;SDS011;63481;52.588;22.472;2022-12-29T01:21:19;19.37;;;10.50;;
34035;SDS011;63481;52.588;22.472;2022-12-29T01:22:10;22.13;;;9.93;;
34035;SDS011;63481;52.588;22.472;2022-12-29T01:23:00;17.25;;;9.40;;
34035;SDS011;63481;52.588;22.472;2022-12-29T01:23:50;16.65;;;8.78;;
34035;SDS011;63481;52.588;22.472;2022-12-29T01:25:30;17.32;;;8.75;;
34035;SDS011;63481;52.588;22.472;2022-12-29T01:26:22;19.98;;;10.03;;
34035;SDS011;63481;52.588;22.472;2022-12-29T01:27:14;19.80;;;9.63;;
34035;SDS011;63481;52.588;22.472;2022-12-29T01:28:04;18.45;;;9.48;;
34035;SDS011;63481;52.588;22.472;2022-12-29T01:28:54;16.57;;;9.38;;
34035;SDS011;63481;52.588;22.472;2022-12-29T01:29:44;18.73;;;9.53;;
34035;SDS011;63481;52.588;22.472;2022-12-29T01:30:34;16.50;;;9.20;;
34035;SDS011;63481;52.588;22.472;2022-12-29T01:31:24;18.12;;;9.10;;
34035;SDS011;63481;52.588;22.472;2022-12-29T01:32:16;17.57;;;9.55;;
34035;SDS011;63481;52.588;22.472;2022-12-29T01:33:06;17.70;;;8.95;;
34035;SDS011;63481;52.588;22.472;2022-12-29T01:33:57;18.82;;;8.98;;
34035;SDS011;63481;52.588;22.472;2022-12-29T01:34:47;16.77;;;9.45;;
34035;SDS011;63481;52.588;22.472;2022-12-29T01:35:37;18.65;;;9.43;;
34035;SDS011;63481;52.588;22.472;2022-12-29T01:36:27;17.95;;;8.73;;
34035;SDS011;63481;52.588;22.472;2022-12-29T01:37:17;18.62;;;8.50;;
34035;SDS011;63481;52.588;22.472;2022-12-29T01:38:07;15.55;;;9.08;;
34035;SDS011;63481;52.588;22.472;2022-12-29T01:38:57;18.15;;;9.05;;
34035;SDS011;63481;52.588;22.472;2022-12-29T01:39:48;15.43;;;8.53;;
34035;SDS011;63481;52.588;22.472;2022-12-29T01:40:44;17.25;;;8.75;;
34035;SDS011;63481;52.588;22.472;2022-12-29T01:41:35;17.85;;;9.18;;
34035;SDS011;63481;52.588;22.472;2022-12-29T01:42:26;16.82;;;8.95;;
34035;SDS011;63481;52.588;22.472;2022-12-29T01:43:16;16.95;;;9.33;;
34035;SDS011;63481;52.588;22.472;2022-12-29T01:45:33;18.02;;;8.95;;
34035;SDS011;63481;52.588;22.472;2022-12-29T01:46:28;18.25;;;9.48;;
34035;SDS011;63481;52.588;22.472;2022-12-29T01:48:37;18.50;;;8.30;;
34035;SDS011;63481;52.588;22.472;2022-12-29T01:49:29;18.77;;;8.30;;
34035;SDS011;63481;52.588;22.472;2022-12-29T01:51:13;20.68;;;9.00;;
34035;SDS011;63481;52.588;22.472;2022-12-29T01:52:06;17.80;;;9.00;;
34035;SDS011;63481;52.588;22.472;2022-12-29T01:53:03;17.45;;;8.85;;
34035;SDS011;63481;52.588;22.472;2022-12-29T01:53:53;19.87;;;9.65;;
34035;SDS011;63481;52.588;22.472;2022-12-29T01:54:48;17.20;;;8.88;;
34035;SDS011;63481;52.588;22.472;2022-12-29T01:55:41;17.60;;;9.23;;
34035;SDS011;63481;52.588;22.472;2022-12-29T01:56:34;16.30;;;8.15;;
34035;SDS011;63481;52.588;22.472;2022-12-29T01:57:27;18.82;;;8.70;;
34035;SDS011;63481;52.588;22.472;2022-12-29T01:58:24;22.37;;;9.20;;
34035;SDS011;63481;52.588;22.472;2022-12-29T01:59:17;21.00;;;9.00;;
34035;SDS011;63481;52.588;22.472;2022-12-29T02:00:11;16.35;;;8.48;;
34035;SDS011;63481;52.588;22.472;2022-12-29T02:01:03;18.45;;;9.25;;
34035;SDS011;63481;52.588;22.472;2022-12-29T02:01:54;18.17;;;8.50;;
34035;SDS011;63481;52.588;22.472;2022-12-29T02:02:45;18.02;;;9.05;;
34035;SDS011;63481;52.588;22.472;2022-12-29T02:03:42;16.67;;;9.38;;
34035;SDS011;63481;52.588;22.472;2022-12-29T02:04:33;18.42;;;8.98;;
34035;SDS011;63481;52.588;22.472;2022-12-29T02:05:32;18.50;;;9.15;;
34035;SDS011;63481;52.588;22.472;2022-12-29T02:06:33;17.92;;;8.95;;
34035;SDS011;63481;52.588;22.472;2022-12-29T02:07:21;19.50;;;8.83;;
34035;SDS011;63481;52.588;22.472;2022-12-29T02:08:14;19.62;;;9.80;;
34035;SDS011;63481;52.588;22.472;2022-12-29T02:09:04;16.48;;;8.95;;
34035;SDS011;63481;52.588;22.472;2022-12-29T02:09:55;15.98;;;8.40;;
34035;SDS011;63481;52.588;22.472;2022-12-29T02:10:47;18.12;;;9.15;;
34035;SDS011;63481;52.588;22.472;2022-12-29T02:11:40;18.73;;;9.38;;
34035;SDS011;63481;52.588;22.472;2022-12-29T02:12:30;16.75;;;8.63;;
34035;SDS011;63481;52.588;22.472;2022-12-29T02:14:10;17.15;;;8.60;;
34035;SDS011;63481;52.588;22.472;2022-12-29T02:15:02;20.27;;;9.68;;
34035;SDS011;63481;52.588;22.472;2022-12-29T02:16:13;22.73;;;10.63;;
34035;SDS011;63481;52.588;22.472;2022-12-29T02:17:13;19.35;;;8.48;;
34035;SDS011;63481;52.588;22.472;2022-12-29T02:26:11;19.85;;;9.10;;
34035;SDS011;63481;52.588;22.472;2022-12-29T02:28:11;18.65;;;9.03;;
34035;SDS011;63481;52.588;22.472;2022-12-29T02:29:17;18.42;;;9.28;;
34035;SDS011;63481;52.588;22.472;2022-12-29T02:39:22;18.98;;;9.05;;
34035;SDS011;63481;52.588;22.472;2022-12-29T02:41:31;15.40;;;8.80;;
34035;SDS011;63481;52.588;22.472;2022-12-29T02:44:50;19.82;;;9.25;;
34035;SDS011;63481;52.588;22.472;2022-12-29T02:50:53;19.05;;;10.05;;
34035;SDS011;63481;52.588;22.472;2022-12-29T02:51:51;19.20;;;9.65;;
34035;SDS011;63481;52.588;22.472;2022-12-29T02:52:50;18.92;;;8.95;;
34035;SDS011;63481;52.588;22.472;2022-12-29T02:53:39;19.00;;;9.35;;
34035;SDS011;63481;52.588;22.472;2022-12-29T02:54:49;19.27;;;9.85;;
34035;SDS011;63481;52.588;22.472;2022-12-29T02:55:46;14.95;;;8.38;;
34035;SDS011;63481;52.588;22.472;2022-12-29T02:56:41;17.20;;;8.45;;
34035;SDS011;63481;52.588;22.472;2022-12-29T02:57:36;16.93;;;8.85;;
34035;SDS011;63481;52.588;22.472;2022-12-29T02:58:24;18.55;;;9.55;;
34035;SDS011;63481;52.588;22.472;2022-12-29T02:59:14;17.82;;;9.25;;
34035;SDS011;63481;52.588;22.472;2022-12-29T03:00:10;18.07;;;9.13;;
34035;SDS011;63481;52.588;22.472;2022-12-29T03:02:03;16.00;;;8.30;;
34035;SDS011;63481;52.588;22.472;2022-12-29T03:07:54;16.50;;;8.83;;
34035;SDS011;63481;52.588;22.472;2022-12-29T03:09:02;16.77;;;8.68;;
34035;SDS011;63481;52.588;22.472;2022-12-29T03:11:57;18.60;;;9.10;;
34035;SDS011;63481;52.588;22.472;2022-12-29T03:13:01;16.82;;;8.38;;
34035;SDS011;63481;52.588;22.472;2022-12-29T03:14:27;19.57;;;8.95;;
34035;SDS011;63481;52.588;22.472;2022-12-29T03:15:51;18.12;;;9.35;;
34035;SDS011;63481;52.588;22.472;2022-12-29T03:16:57;20.60;;;9.20;;
34035;SDS011;63481;52.588;22.472;2022-12-29T03:18:01;17.00;;;8.40;;
34035;SDS011;63481;52.588;22.472;2022-12-29T03:19:00;18.57;;;8.98;;
34035;SDS011;63481;52.588;22.472;2022-12-29T03:19:51;17.27;;;8.43;;
34035;SDS011;63481;52.588;22.472;2022-12-29T03:21:41;19.73;;;9.18;;
34035;SDS011;63481;52.588;22.472;2022-12-29T03:22:53;20.08;;;9.38;;
34035;SDS011;63481;52.588;22.472;2022-12-29T03:23:47;17.87;;;9.45;;
34035;SDS011;63481;52.588;22.472;2022-12-29T03:24:41;18.82;;;9.58;;
34035;SDS011;63481;52.588;22.472;2022-12-29T03:25:37;17.82;;;9.20;;
34035;SDS011;63481;52.588;22.472;2022-12-29T03:26:31;18.75;;;8.93;;
34035;SDS011;63481;52.588;22.472;2022-12-29T03:27:38;19.30;;;9.18;;
34035;SDS011;63481;52.588;22.472;2022-12-29T03:28:33;16.97;;;8.98;;
34035;SDS011;63481;52.588;22.472;2022-12-29T03:29:24;17.95;;;8.70;;
34035;SDS011;63481;52.588;22.472;2022-12-29T03:30:18;17.85;;;8.93;;
34035;SDS011;63481;52.588;22.472;2022-12-29T03:31:10;20.08;;;8.78;;
34035;SDS011;63481;52.588;22.472;2022-12-29T03:32:03;17.55;;;9.68;;
34035;SDS011;63481;52.588;22.472;2022-12-29T03:32:55;17.95;;;8.60;;
34035;SDS011;63481;52.588;22.472;2022-12-29T03:33:49;16.48;;;9.00;;
34035;SDS011;63481;52.588;22.472;2022-12-29T03:34:41;20.72;;;9.15;;
34035;SDS011;63481;52.588;22.472;2022-12-29T03:35:33;20.12;;;9.43;;
34035;SDS011;63481;52.588;22.472;2022-12-29T03:36:27;15.58;;;8.33;;
34035;SDS011;63481;52.588;22.472;2022-12-29T03:37:23;18.92;;;9.88;;
34035;SDS011;63481;52.588;22.472;2022-12-29T03:38:24;16.52;;;8.50;;
34035;SDS011;63481;52.588;22.472;2022-12-29T03:39:29;19.32;;;9.00;;
34035;SDS011;63481;52.588;22.472;2022-12-29T03:41:11;18.20;;;8.05;;
34035;SDS011;63481;52.588;22.472;2022-12-29T03:42:05;18.48;;;8.58;;
34035;SDS011;63481;52.588;22.472;2022-12-29T03:42:58;17.25;;;9.03;;
34035;SDS011;63481;52.588;22.472;2022-12-29T03:43:50;19.12;;;9.70;;
34035;SDS011;63481;52.588;22.472;2022-12-29T03:44:41;20.92;;;9.28;;
34035;SDS011;63481;52.588;22.472;2022-12-29T03:45:34;18.32;;;8.83;;
34035;SDS011;63481;52.588;22.472;2022-12-29T03:46:24;19.37;;;9.30;;
34035;SDS011;63481;52.588;22.472;2022-12-29T03:47:15;17.85;;;9.23;;
34035;SDS011;63481;52.588;22.472;2022-12-29T03:48:05;20.15;;;9.30;;
34035;SDS011;63481;52.588;22.472;2022-12-29T03:48:56;19.87;;;9.45;;
34035;SDS011;63481;52.588;22.472;2022-12-29T03:49:46;17.50;;;8.48;;
34035;SDS011;63481;52.588;22.472;2022-12-29T03:50:37;16.93;;;9.10;;
34035;SDS011;63481;52.588;22.472;2022-12-29T03:51:30;17.52;;;9.75;;
34035;SDS011;63481;52.588;22.472;2022-12-29T03:52:20;18.87;;;8.95;;
34035;SDS011;63481;52.588;22.472;2022-12-29T03:54:01;17.60;;;8.70;;
34035;SDS011;63481;52.588;22.472;2022-12-29T03:54:51;20.05;;;9.88;;
34035;SDS011;63481;52.588;22.472;2022-12-29T03:55:41;17.48;;;8.63;;
34035;SDS011;63481;52.588;22.472;2022-12-29T03:56:32;18.42;;;9.03;;
34035;SDS011;63481;52.588;22.472;2022-12-29T03:57:22;18.00;;;9.65;;
34035;SDS011;63481;52.588;22.472;2022-12-29T03:58:26;19.23;;;9.63;;
34035;SDS011;63481;52.588;22.472;2022-12-29T03:59:18;18.73;;;9.55;;
34035;SDS011;63481;52.588;22.472;2022-12-29T04:00:09;18.82;;;9.28;;
34035;SDS011;63481;52.588;22.472;2022-12-29T04:01:10;18.05;;;8.55;;
34035;SDS011;63481;52.588;22.472;2022-12-29T04:02:50;16.48;;;8.63;;
34035;SDS011;63481;52.588;22.472;2022-12-29T04:03:42;19.60;;;9.48;;
34035;SDS011;63481;52.588;22.472;2022-12-29T04:04:33;17.70;;;9.75;;
34035;SDS011;63481;52.588;22.472;2022-12-29T04:05:23;16.62;;;8.85;;
34035;SDS011;63481;52.588;22.472;2022-12-29T04:06:15;17.80;;;9.38;;
34035;SDS011;63481;52.588;22.472;2022-12-29T04:07:10;18.25;;;9.55;;
34035;SDS011;63481;52.588;22.472;2022-12-29T04:08:00;21.35;;;9.78;;
34035;SDS011;63481;52.588;22.472;2022-12-29T04:08:51;18.67;;;9.73;;
34035;SDS011;63481;52.588;22.472;2022-12-29T04:09:41;18.55;;;9.28;;
34035;SDS011;63481;52.588;22.472;2022-12-29T04:10:33;17.65;;;9.25;;
34035;SDS011;63481;52.588;22.472;2022-12-29T04:11:25;19.45;;;10.35;;
34035;SDS011;63481;52.588;22.472;2022-12-29T04:12:15;19.25;;;9.40;;
34035;SDS011;63481;52.588;22.472;2022-12-29T04:13:06;16.45;;;9.33;;
34035;SDS011;63481;52.588;22.472;2022-12-29T04:13:56;17.80;;;9.68;;
34035;SDS011;63481;52.588;22.472;2022-12-29T04:14:47;19.75;;;9.90;;
34035;SDS011;63481;52.588;22.472;2022-12-29T04:15:37;20.23;;;10.78;;
34035;SDS011;63481;52.588;22.472;2022-12-29T04:16:28;19.77;;;9.70;;
34035;SDS011;63481;52.588;22.472;2022-12-29T04:17:18;20.05;;;10.32;;
34035;SDS011;63481;52.588;22.472;2022-12-29T04:18:10;21.93;;;9.68;;
34035;SDS011;63481;52.588;22.472;2022-12-29T04:19:01;19.48;;;9.60;;
34035;SDS011;63481;52.588;22.472;2022-12-29T04:19:52;20.45;;;10.18;;
34035;SDS011;63481;52.588;22.472;2022-12-29T04:20:45;21.42;;;10.55;;
34035;SDS011;63481;52.588;22.472;2022-12-29T04:21:51;17.20;;;9.63;;
34035;SDS011;63481;52.588;22.472;2022-12-29T04:22:41;20.05;;;10.23;;
34035;SDS011;63481;52.588;22.472;2022-12-29T04:23:32;19.30;;;10.43;;
34035;SDS011;63481;52.588;22.472;2022-12-29T04:24:25;18.40;;;9.90;;
34035;SDS011;63481;52.588;22.472;2022-12-29T04:25:15;20.12;;;10.75;;
34035;SDS011;63481;52.588;22.472;2022-12-29T04:26:06;19.30;;;10.23;;
34035;SDS011;63481;52.588;22.472;2022-12-29T04:27:00;18.95;;;10.65;;
34035;SDS011;63481;52.588;22.472;2022-12-29T04:28:08;21.07;;;10.18;;
34035;SDS011;63481;52.588;22.472;2022-12-29T04:29:06;18.82;;;10.55;;
34035;SDS011;63481;52.588;22.472;2022-12-29T04:29:58;20.37;;;10.65;;
34035;SDS011;63481;52.588;22.472;2022-12-29T04:30:56;18.92;;;10.43;;
34035;SDS011;63481;52.588;22.472;2022-12-29T04:31:48;20.62;;;10.65;;
34035;SDS011;63481;52.588;22.472;2022-12-29T04:32:40;20.50;;;9.90;;
34035;SDS011;63481;52.588;22.472;2022-12-29T04:33:30;17.40;;;10.23;;
34035;SDS011;63481;52.588;22.472;2022-12-29T04:34:20;19.82;;;10.68;;
34035;SDS011;63481;52.588;22.472;2022-12-29T04:35:11;20.55;;;10.50;;
34035;SDS011;63481;52.588;22.472;2022-12-29T04:36:01;21.37;;;10.55;;
34035;SDS011;63481;52.588;22.472;2022-12-29T04:36:51;20.88;;;10.35;;
34035;SDS011;63481;52.588;22.472;2022-12-29T04:38:32;19.77;;;10.05;;
34035;SDS011;63481;52.588;22.472;2022-12-29T04:39:23;24.45;;;10.28;;
34035;SDS011;63481;52.588;22.472;2022-12-29T04:40:14;20.35;;;11.12;;
34035;SDS011;63481;52.588;22.472;2022-12-29T04:41:04;19.30;;;11.08;;
34035;SDS011;63481;52.588;22.472;2022-12-29T04:41:55;21.77;;;11.43;;
34035;SDS011;63481;52.588;22.472;2022-12-29T04:42:48;22.77;;;10.63;;
34035;SDS011;63481;52.588;22.472;2022-12-29T04:43:40;18.90;;;10.23;;
34035;SDS011;63481;52.588;22.472;2022-12-29T04:44:48;21.27;;;11.45;;
34035;SDS011;63481;52.588;22.472;2022-12-29T04:45:43;18.75;;;10.23;;
34035;SDS011;63481;52.588;22.472;2022-12-29T04:46:37;20.65;;;11.25;;
34035;SDS011;63481;52.588;22.472;2022-12-29T04:47:29;18.60;;;10.40;;
34035;SDS011;63481;52.588;22.472;2022-12-29T04:48:30;17.48;;;10.43;;
34035;SDS011;63481;52.588;22.472;2022-12-29T04:49:22;23.57;;;11.48;;
34035;SDS011;63481;52.588;22.472;2022-12-29T04:50:17;19.42;;;10.25;;
34035;SDS011;63481;52.588;22.472;2022-12-29T04:51:09;19.05;;;11.00;;
34035;SDS011;63481;52.588;22.472;2022-12-29T04:52:01;19.52;;;11.00;;
34035;SDS011;63481;52.588;22.472;2022-12-29T04:52:53;21.85;;;11.20;;
34035;SDS011;63481;52.588;22.472;2022-12-29T04:53:43;22.27;;;10.78;;
34035;SDS011;63481;52.588;22.472;2022-12-29T04:54:34;21.05;;;11.15;;
34035;SDS011;63481;52.588;22.472;2022-12-29T04:55:35;21.45;;;10.82;;
34035;SDS011;63481;52.588;22.472;2022-12-29T04:56:25;20.57;;;10.93;;
34035;SDS011;63481;52.588;22.472;2022-12-29T04:57:15;19.17;;;10.58;;
34035;SDS011;63481;52.588;22.472;2022-12-29T04:58:07;21.85;;;11.33;;
34035;SDS011;63481;52.588;22.472;2022-12-29T04:58:58;23.05;;;11.40;;
34035;SDS011;63481;52.588;22.472;2022-12-29T04:59:49;19.60;;;11.15;;
34035;SDS011;63481;52.588;22.472;2022-12-29T05:00:43;18.95;;;10.63;;
34035;SDS011;63481;52.588;22.472;2022-12-29T05:01:33;19.92;;;11.83;;
34035;SDS011;63481;52.588;22.472;2022-12-29T05:02:23;22.15;;;11.38;;
34035;SDS011;63481;52.588;22.472;2022-12-29T05:03:14;19.65;;;10.58;;
34035;SDS011;63481;52.588;22.472;2022-12-29T05:04:06;18.75;;;10.23;;
34035;SDS011;63481;52.588;22.472;2022-12-29T05:04:56;20.75;;;11.30;;
34035;SDS011;63481;52.588;22.472;2022-12-29T05:05:46;21.12;;;11.15;;
34035;SDS011;63481;52.588;22.472;2022-12-29T05:06:36;20.45;;;10.88;;
34035;SDS011;63481;52.588;22.472;2022-12-29T05:07:26;19.35;;;10.80;;
34035;SDS011;63481;52.588;22.472;2022-12-29T05:08:17;19.48;;;10.35;;
34035;SDS011;63481;52.588;22.472;2022-12-29T05:09:08;20.95;;;11.25;;
34035;SDS011;63481;52.588;22.472;2022-12-29T05:09:58;19.00;;;10.08;;
34035;SDS011;63481;52.588;22.472;2022-12-29T05:10:51;21.15;;;11.30;;
34035;SDS011;63481;52.588;22.472;2022-12-29T05:11:42;21.00;;;10.93;;
34035;SDS011;63481;52.588;22.472;2022-12-29T05:12:33;19.82;;;11.45;;
34035;SDS011;63481;52.588;22.472;2022-12-29T05:13:27;21.57;;;11.80;;
34035;SDS011;63481;52.588;22.472;2022-12-29T05:14:17;20.08;;;10.60;;
34035;SDS011;63481;52.588;22.472;2022-12-29T05:15:07;19.30;;;10.53;;
34035;SDS011;63481;52.588;22.472;2022-12-29T05:15:59;22.20;;;11.15;;
34035;SDS011;63481;52.588;22.472;2022-12-29T05:16:49;23.10;;;11.15;;
34035;SDS011;63481;52.588;22.472;2022-12-29T05:19:06;21.27;;;11.68;;
34035;SDS011;63481;52.588;22.472;2022-12-29T05:19:56;23.50;;;11.35;;
34035;SDS011;63481;52.588;22.472;2022-12-29T05:20:50;21.25;;;10.95;;
34035;SDS011;63481;52.588;22.472;2022-12-29T05:21:40;21.73;;;11.57;;
34035;SDS011;63481;52.588;22.472;2022-12-29T05:22:30;20.37;;;11.57;;
34035;SDS011;63481;52.588;22.472;2022-12-29T05:23:20;20.52;;;11.60;;
34035;SDS011;63481;52.588;22.472;2022-12-29T05:24:12;22.62;;;10.58;;
34035;SDS011;63481;52.588;22.472;2022-12-29T05:25:04;20.15;;;11.08;;
34035;SDS011;63481;52.588;22.472;2022-12-29T05:25:56;21.20;;;11.80;;
34035;SDS011;63481;52.588;22.472;2022-12-29T05:27:04;21.25;;;11.48;;
34035;SDS011;63481;52.588;22.472;2022-12-29T05:27:59;21.75;;;11.73;;
34035;SDS011;63481;52.588;22.472;2022-12-29T05:28:54;20.75;;;10.68;;
34035;SDS011;63481;52.588;22.472;2022-12-29T05:29:46;20.80;;;10.68;;
34035;SDS011;63481;52.588;22.472;2022-12-29T05:30:38;22.05;;;11.33;;
34035;SDS011;63481;52.588;22.472;2022-12-29T05:31:28;21.48;;;11.33;;
34035;SDS011;63481;52.588;22.472;2022-12-29T05:32:18;22.02;;;11.38;;
34035;SDS011;63481;52.588;22.472;2022-12-29T05:33:09;18.87;;;10.82;;
34035;SDS011;63481;52.588;22.472;2022-12-29T05:34:01;21.15;;;11.45;;
34035;SDS011;63481;52.588;22.472;2022-12-29T05:34:52;20.43;;;10.85;;
34035;SDS011;63481;52.588;22.472;2022-12-29T05:35:42;22.87;;;11.57;;
34035;SDS011;63481;52.588;22.472;2022-12-29T05:36:33;23.83;;;11.03;;
34035;SDS011;63481;52.588;22.472;2022-12-29T05:37:23;22.15;;;10.88;;
34035;SDS011;63481;52.588;22.472;2022-12-29T05:38:14;20.90;;;10.80;;
34035;SDS011;63481;52.588;22.472;2022-12-29T05:39:04;19.67;;;11.00;;
34035;SDS011;63481;52.588;22.472;2022-12-29T05:39:56;21.73;;;11.03;;
34035;SDS011;63481;52.588;22.472;2022-12-29T05:40:48;20.43;;;11.57;;
34035;SDS011;63481;52.588;22.472;2022-12-29T05:41:57;21.62;;;11.25;;
34035;SDS011;63481;52.588;22.472;2022-12-29T05:43:06;20.20;;;11.60;;
34035;SDS011;63481;52.588;22.472;2022-12-29T05:43:58;18.67;;;11.03;;
34035;SDS011;63481;52.588;22.472;2022-12-29T05:44:52;20.60;;;10.48;;
34035;SDS011;63481;52.588;22.472;2022-12-29T05:45:57;21.77;;;11.78;;
34035;SDS011;63481;52.588;22.472;2022-12-29T05:47:05;19.30;;;10.50;;
34035;SDS011;63481;52.588;22.472;2022-12-29T05:47:58;18.80;;;10.90;;
34035;SDS011;63481;52.588;22.472;2022-12-29T05:48:53;22.15;;;11.00;;
34035;SDS011;63481;52.588;22.472;2022-12-29T05:49:48;22.65;;;12.15;;
34035;SDS011;63481;52.588;22.472;2022-12-29T05:50:40;19.70;;;10.25;;
34035;SDS011;63481;52.588;22.472;2022-12-29T05:54:21;21.73;;;10.70;;
34035;SDS011;63481;52.588;22.472;2022-12-29T05:56:52;20.82;;;10.55;;
34035;SDS011;63481;52.588;22.472;2022-12-29T05:57:44;20.20;;;10.23;;
34035;SDS011;63481;52.588;22.472;2022-12-29T05:58:36;18.62;;;10.00;;
34035;SDS011;63481;52.588;22.472;2022-12-29T05:59:27;21.62;;;11.30;;
34035;SDS011;63481;52.588;22.472;2022-12-29T06:01:08;19.50;;;10.25;;
34035;SDS011;63481;52.588;22.472;2022-12-29T06:01:59;21.02;;;11.05;;
34035;SDS011;63481;52.588;22.472;2022-12-29T06:02:51;21.10;;;10.48;;
34035;SDS011;63481;52.588;22.472;2022-12-29T06:04:31;17.80;;;9.50;;
34035;SDS011;63481;52.588;22.472;2022-12-29T06:05:21;20.15;;;11.03;;
34035;SDS011;63481;52.588;22.472;2022-12-29T06:06:12;21.80;;;10.68;;
34035;SDS011;63481;52.588;22.472;2022-12-29T06:07:02;17.85;;;10.15;;
34035;SDS011;63481;52.588;22.472;2022-12-29T06:07:57;16.57;;;9.85;;
34035;SDS011;63481;52.588;22.472;2022-12-29T06:08:49;19.10;;;10.15;;
34035;SDS011;63481;52.588;22.472;2022-12-29T06:09:41;17.85;;;9.90;;
34035;SDS011;63481;52.588;22.472;2022-12-29T06:11:23;17.75;;;10.10;;
34035;SDS011;63481;52.588;22.472;2022-12-29T06:12:15;18.95;;;9.90;;